Aérodrome :
LOGIN :

S'inscrire | Disclaimer

   EN    FR    IT 

 










Légende :    VFR   VFR Marginal   IFR   IFR Intensif   IFR Très Intensif
Visi : 
Plafond : 
>= 8 km
>= 3000ft
5 à 8 km
1000 à 3000 ft
1500m à 5 km
500 à 1000 ft
800 à 1500m
200 à 500 ft
< 800m
< 200 ft
Symboles :   Orages  Brouillard  Fortes neiges  Fortes précipitations  Vent > 20 kt
SIGMETs :   Divers  Orages  Givrage  Turbulence  Onde Orograph.  Cendres Volcan.







- Altitude de l'aérodrome : 0 ft


ETEB - Ansbach Army Heliport

DERNIER METAR :
  • 231741Z AUTO 26018G24KT 9999 BKN030 BKN041 OVC110 11/01 A3016 RMK AO2 SLP236 $

METARs EXPIRÉS :
  • 231656Z AUTO 26020G29KT 9999 BKN029 BKN035 10/02 A3014 RMK AO2 PK WND 25029/45 CIG 029V039 SLP230 T01030022 $
  • 231556Z AUTO 26016G24KT 9999 OVC050 10/02 A3015 RMK AO2 PK WND 26027/20 SLP233 T01030019 $
  • 231456Z AUTO 26011G20KT 9999 BKN060 OVC070 10/02 A3017 RMK AO2 SLP240 60000 T01040017 56022 $

TAF TAF ETEB
Valide du 23 à 13h jusqu'au 24 à 19h UTC


231302Z 2313/2419 26010G15KT 9999 SCT025 BKN100 QNH3018INS
BECMG 2313/2314 26018G25KT 9999 SCT025 BKN100 QNH3018INS
TEMPO 2313/2317 9000 -SHRA SCT025 BKN050
BECMG 2316/2317 26020G30KT 9999 SCT025 BKN120 QNH3016INS
TEMPO 2320/2322 27025G35KT 510003
BECMG 2321/2322 27020G30KT 9999 FEW020 OVC035 QNH3013INS
TEMPO 2322/2401 27025G35KT 510003
BECMG 2400/2401 27020G30KT 9000 -SHRA OVC015 QNH3008INS
TEMPO 2401/2405 27025G35KT 510003
BECMG 2404/2405 27020G30KT 8000 -SHRA OVC008 QNH3007INS
BECMG 2409/2410 27015G25KT 8000 -SHRA OVC004 QNH3011INS TX12/2412Z TN07/2400Z
Pas de NOTAMs connus pour ce terrain.



MET'MAP, la Météo Aéronautique d'un coup d'oeil ! - Copyright ORBIFLY Décembre 2007 - Disclaimer

ORBIFLY MET'MAP TEAM :

Programmation & Développement : Alexandra Zaïnal
Conception & Développement : Baudouin d'Aumeries
Co-Programmation & Développement : Marc-Olivier Méhu
Soutien technique & logistique : Manuel Goepfert

Contact : metmap@orbifly.com




SOURCES & CREDITS :

   NOAA